Time;durP1;ratioP1;P1;durP2;ratioP2;P2;SDS_P1;SDS_P2;PMS_P1;PMS_P2;Temp;Humidity;BMP_temperature;BMP_pressure;BME280_temperature;BME280_humidity;BME280_pressure;Samples;Min_cycle;Max_cycle;Signal;HPM_P1;HPM_P2
2022/06/08 00:01:11;;;;;;;;;;;14.90;99.90;;;;;;5090043;28;19908;-69
2022/06/08 00:03:45;;;;;;;;;;;14.90;99.90;;;;;;5089846;28;19935;-68
2022/06/08 00:06:11;;;;;;;;;;;14.90;99.90;;;;;;5107363;28;19915;-68
2022/06/08 00:08:37;;;;;;;;;;;14.80;99.90;;;;;;5113661;28;19903;-69
2022/06/08 00:11:02;;;;;;;;;;;14.80;99.90;;;;;;5113600;28;20280;-69
2022/06/08 00:13:28;;;;;;;;;;;14.80;99.90;;;;;;5113291;28;20284;-69
2022/06/08 00:15:54;;;;;;;;;;;14.80;99.90;;;;;;5113281;28;19908;-69
2022/06/08 00:18:20;;;;;;;;;;;14.80;99.90;;;;;;5113407;28;19911;-69
2022/06/08 00:20:46;;;;;;;;;;;14.70;99.90;;;;;;5112968;28;19908;-69
2022/06/08 00:23:11;;;;;;;;;;;14.70;99.90;;;;;;5113524;28;20049;-69
2022/06/08 00:25:37;;;;;;;;;;;14.70;99.90;;;;;;5113040;28;19998;-69
2022/06/08 00:28:03;;;;;;;;;;;14.70;99.90;;;;;;5112307;28;20006;-70
2022/06/08 00:30:29;;;;;;;;;;;14.70;99.90;;;;;;5110562;28;19911;-70
2022/06/08 00:32:54;;;;;;;;;;;14.70;99.90;;;;;;5109953;28;19974;-71
2022/06/08 00:35:20;;;;;;;;;;;14.60;99.90;;;;;;5111925;28;19904;-71
2022/06/08 00:37:46;;;;;;;;;;;14.70;99.90;;;;;;5113019;28;19903;-72
2022/06/08 00:40:12;;;;;;;;;;;14.60;99.90;;;;;;5112746;28;20360;-73
2022/06/08 00:42:40;;;;;;;;;;;14.60;99.90;;;;;;5113003;28;19919;-73
2022/06/08 00:45:10;;;;;;;;;;;14.60;99.90;;;;;;5112806;28;19914;-74
2022/06/08 00:47:39;;;;;;;;;;;14.60;99.90;;;;;;5113007;28;19939;-74
2022/06/08 00:50:09;;;;;;;;;;;14.60;99.90;;;;;;5112216;28;19948;-75
2022/06/08 00:52:35;;;;;;;;;;;14.60;99.90;;;;;;5110087;28;20014;-77
2022/06/08 00:55:05;;;;;;;;;;;14.70;99.90;;;;;;5109569;28;19990;-77
2022/06/08 00:57:40;;;;;;;;;;;14.60;99.90;;;;;;5111860;28;19939;-77
2022/06/08 01:00:24;;;;;;;;;;;14.70;99.90;;;;;;5112674;28;19949;-77
2022/06/08 01:02:49;;;;;;;;;;;14.60;99.90;;;;;;5110457;28;19977;-75
2022/06/08 01:05:21;;;;;;;;;;;14.60;99.90;;;;;;5108839;28;19908;-76
2022/06/08 01:07:48;;;;;;;;;;;14.60;99.90;;;;;;5111088;28;19954;-75
2022/06/08 01:10:16;;;;;;;;;;;14.70;99.90;;;;;;5112758;28;19911;-76
2022/06/08 01:12:42;;;;;;;;;;;14.70;99.90;;;;;;5112539;28;19907;-77
2022/06/08 01:15:09;;;;;;;;;;;14.70;99.90;;;;;;5112710;28;20344;-78
2022/06/08 01:17:35;;;;;;;;;;;14.60;99.90;;;;;;5113198;28;19968;-78
2022/06/08 01:20:00;;;;;;;;;;;14.60;99.90;;;;;;5112792;28;20002;-79
2022/06/08 01:22:26;;;;;;;;;;;;;;;;;;5114955;28;20336;-79
2022/06/08 01:24:52;;;;;;;;;;;;;;;;;;5114583;28;19910;-78
2022/06/08 01:27:18;;;;;;;;;;;;;;;;;;5113623;28;19951;-78
2022/06/08 01:29:44;;;;;;;;;;;;;;;;;;5112681;28;19914;-80
2022/06/08 01:32:10;;;;;;;;;;;;;;;;;;5112241;28;20049;-79
2022/06/08 01:34:36;;;;;;;;;;;;;;;;;;5111900;28;20386;-73
2022/06/08 01:37:02;;;;;;;;;;;;;;;;;;5111574;28;19904;-70
2022/06/08 01:39:50;;;;;;;;;;;14.60;99.90;;;;;;5111386;28;19904;-69
2022/06/08 01:42:33;;;;;;;;;;;14.60;99.90;;;;;;5081796;27;20428;-68
2022/06/08 01:45:28;;;;;;;;;;;14.60;99.90;;;;;;5112228;28;19910;-76
2022/06/08 01:48:13;;;;;;;;;;;14.60;99.90;;;;;;5060459;28;19908;-75
2022/06/08 01:50:41;;;;;;;;;;;14.60;99.90;;;;;;5086922;28;19908;-74
2022/06/08 01:53:18;;;;;;;;;;;14.60;99.90;;;;;;5087946;28;19983;-74
2022/06/08 01:55:53;;;;;;;;;;;14.60;99.90;;;;;;5088079;28;20323;-73
2022/06/08 01:58:25;;;;;;;;;;;14.60;99.90;;;;;;5091619;28;19908;-73
2022/06/08 02:00:59;;;;;;;;;;;14.70;99.90;;;;;;5087485;28;19931;-75
2022/06/08 02:03:56;;;;;;;;;;;14.70;99.90;;;;;;5087847;28;19912;-76
2022/06/08 02:06:30;;;;;;;;;;;14.70;99.90;;;;;;5077649;28;19908;-76
2022/06/08 02:09:00;;;;;;;;;;;14.70;99.90;;;;;;5108248;28;19910;-75
2022/06/08 02:11:37;;;;;;;;;;;14.70;99.90;;;;;;5108221;28;19914;-75
2022/06/08 02:14:07;;;;;;;;;;;14.70;99.90;;;;;;5108334;28;19907;-74
2022/06/08 02:16:33;;;;;;;;;;;14.70;99.90;;;;;;5108724;28;20002;-73
2022/06/08 02:19:19;;;;;;;;;;;14.70;99.90;;;;;;5110820;28;20272;-73
2022/06/08 02:21:51;;;;;;;;;;;14.70;99.90;;;;;;5110118;28;19965;-73
2022/06/08 02:24:25;;;;;;;;;;;14.70;99.90;;;;;;5111210;28;20016;-72
2022/06/08 02:27:00;;;;;;;;;;;14.80;99.90;;;;;;5092670;28;19903;-72
2022/06/08 02:29:33;;;;;;;;;;;14.70;99.90;;;;;;5111182;28;19998;-72
2022/06/08 02:35:14;;;;;;;;;;;14.80;99.90;;;;;;5110873;28;19914;-72
2022/06/08 02:37:39;;;;;;;;;;;;;;;;;;5111114;28;19926;-72
2022/06/08 02:40:11;;;;;;;;;;;14.80;99.90;;;;;;5110829;28;20358;-73
2022/06/08 02:42:41;;;;;;;;;;;14.80;99.90;;;;;;5110716;28;19922;-71
2022/06/08 02:45:11;;;;;;;;;;;14.80;99.90;;;;;;5110735;28;20364;-71
2022/06/08 02:47:38;;;;;;;;;;;14.80;99.90;;;;;;5110985;28;19904;-71
2022/06/08 02:50:05;;;;;;;;;;;14.70;99.90;;;;;;5110640;28;19911;-72
2022/06/08 02:52:31;;;;;;;;;;;14.70;99.90;;;;;;5113876;28;19908;-71
2022/06/08 02:54:56;;;;;;;;;;;14.80;99.90;;;;;;5114935;28;20288;-73
2022/06/08 02:57:41;;;;;;;;;;;14.80;99.90;;;;;;5114844;28;19986;-71
2022/06/08 03:00:21;;;;;;;;;;;14.80;99.90;;;;;;5114769;28;19904;-70
2022/06/08 03:02:56;;;;;;;;;;;14.80;99.90;;;;;;5114820;28;19911;-71
2022/06/08 03:05:24;;;;;;;;;;;14.80;99.90;;;;;;5114366;28;20279;-69
2022/06/08 03:07:50;;;;;;;;;;;14.80;99.90;;;;;;5115082;28;19904;-70
2022/06/08 03:10:16;;;;;;;;;;;14.80;99.90;;;;;;5114824;28;20288;-70
2022/06/08 03:12:46;;;;;;;;;;;14.80;99.90;;;;;;5114860;28;20018;-70
2022/06/08 03:15:15;;;;;;;;;;;14.80;99.90;;;;;;5114591;28;19904;-71
2022/06/08 03:17:43;;;;;;;;;;;14.80;99.90;;;;;;5114540;28;19904;-71
2022/06/08 03:20:09;;;;;;;;;;;14.80;99.90;;;;;;5114189;28;20265;-72
2022/06/08 03:22:35;;;;;;;;;;;14.80;99.90;;;;;;5114394;28;19976;-72
2022/06/08 03:25:01;;;;;;;;;;;14.80;99.90;;;;;;5114422;28;20255;-71
2022/06/08 03:27:26;;;;;;;;;;;14.80;99.90;;;;;;5114355;28;19904;-72
2022/06/08 03:29:52;;;;;;;;;;;14.80;99.90;;;;;;5114459;28;19916;-73
2022/06/08 03:32:18;;;;;;;;;;;14.80;99.90;;;;;;5114575;28;19949;-73
2022/06/08 03:34:43;;;;;;;;;;;14.80;99.90;;;;;;5114074;28;20535;-73
2022/06/08 03:37:09;;;;;;;;;;;14.90;99.90;;;;;;5114001;28;19911;-73
2022/06/08 03:39:35;;;;;;;;;;;14.90;99.90;;;;;;5114128;28;19907;-72
2022/06/08 03:42:00;;;;;;;;;;;14.90;99.90;;;;;;5113697;28;19926;-72
2022/06/08 03:44:26;;;;;;;;;;;14.80;99.90;;;;;;5114003;28;19915;-71
2022/06/08 03:46:57;;;;;;;;;;;14.90;99.90;;;;;;5114005;27;19911;-72
2022/06/08 03:49:24;;;;;;;;;;;14.90;99.90;;;;;;5113856;28;19923;-72
2022/06/08 03:51:50;;;;;;;;;;;14.90;99.90;;;;;;5113696;27;19957;-72
2022/06/08 03:54:20;;;;;;;;;;;14.90;99.90;;;;;;5113173;28;19907;-72
2022/06/08 03:56:47;;;;;;;;;;;14.90;99.90;;;;;;5113862;28;19915;-72
2022/06/08 03:59:13;;;;;;;;;;;14.90;99.90;;;;;;5113652;28;20288;-74
2022/06/08 04:01:39;;;;;;;;;;;14.90;99.90;;;;;;5113662;28;19912;-73
2022/06/08 04:04:04;;;;;;;;;;;15.00;99.90;;;;;;5112298;28;19992;-73
2022/06/08 04:06:30;;;;;;;;;;;15.00;99.90;;;;;;5113379;28;19960;-73
2022/06/08 04:08:56;;;;;;;;;;;15.00;99.90;;;;;;5113677;28;20348;-73
2022/06/08 04:11:22;;;;;;;;;;;15.00;99.90;;;;;;5113483;28;19916;-73
2022/06/08 04:13:47;;;;;;;;;;;15.00;99.90;;;;;;5113655;28;19903;-73
2022/06/08 04:16:15;;;;;;;;;;;15.00;99.90;;;;;;5112025;28;20317;-73
2022/06/08 04:18:41;;;;;;;;;;;15.00;99.90;;;;;;5110265;27;20340;-73
2022/06/08 04:21:08;;;;;;;;;;;15.00;99.90;;;;;;5110640;28;19922;-71
2022/06/08 04:23:34;;;;;;;;;;;15.00;99.90;;;;;;5113374;28;19908;-73
2022/06/08 04:26:00;;;;;;;;;;;15.00;99.90;;;;;;5113242;27;19951;-73
2022/06/08 04:28:26;;;;;;;;;;;15.00;99.90;;;;;;5113456;28;19942;-73
2022/06/08 04:30:52;;;;;;;;;;;15.00;99.90;;;;;;5112702;28;19908;-74
2022/06/08 04:33:18;;;;;;;;;;;15.00;99.90;;;;;;5109941;28;20537;-73
2022/06/08 04:35:44;;;;;;;;;;;15.00;99.90;;;;;;5109332;28;20014;-73
2022/06/08 04:38:10;;;;;;;;;;;15.00;99.90;;;;;;5111498;28;19994;-73
2022/06/08 04:40:36;;;;;;;;;;;15.00;99.90;;;;;;5113161;28;19986;-73
2022/06/08 04:43:03;;;;;;;;;;;15.00;99.90;;;;;;5112556;28;20364;-73
2022/06/08 04:45:28;;;;;;;;;;;15.10;99.90;;;;;;5112753;28;19910;-73
2022/06/08 04:47:54;;;;;;;;;;;15.10;99.90;;;;;;5113006;28;20010;-73
2022/06/08 04:50:19;;;;;;;;;;;15.10;99.90;;;;;;5112390;28;19927;-73
2022/06/08 04:52:45;;;;;;;;;;;15.10;99.90;;;;;;5112523;28;19908;-71
2022/06/08 04:55:12;;;;;;;;;;;15.20;99.90;;;;;;5112631;28;19947;-73
2022/06/08 04:57:38;;;;;;;;;;;15.20;99.90;;;;;;5112640;28;20481;-72
2022/06/08 05:00:05;;;;;;;;;;;15.20;99.90;;;;;;5112720;28;20292;-73
2022/06/08 05:02:48;;;;;;;;;;;15.20;99.90;;;;;;5109299;28;19922;-73
2022/06/08 05:05:15;;;;;;;;;;;15.20;99.90;;;;;;5109208;28;19990;-73
2022/06/08 05:07:41;;;;;;;;;;;15.20;99.90;;;;;;5110885;28;19903;-72
2022/06/08 05:10:07;;;;;;;;;;;15.20;99.90;;;;;;5112320;28;20301;-72
2022/06/08 05:12:32;;;;;;;;;;;15.20;99.90;;;;;;5112273;28;19907;-72
2022/06/08 05:14:58;;;;;;;;;;;15.20;99.90;;;;;;5112063;28;19911;-73
2022/06/08 05:17:24;;;;;;;;;;;15.20;99.90;;;;;;5109379;28;20002;-73
2022/06/08 05:19:50;;;;;;;;;;;15.20;99.90;;;;;;5109125;28;20610;-72
2022/06/08 05:22:15;;;;;;;;;;;15.20;99.90;;;;;;5109645;28;19915;-72
2022/06/08 05:24:41;;;;;;;;;;;15.20;99.90;;;;;;5112132;28;19904;-72
2022/06/08 05:27:06;;;;;;;;;;;15.20;99.90;;;;;;5109363;28;20048;-72
2022/06/08 05:29:32;;;;;;;;;;;15.20;99.90;;;;;;5108865;28;19903;-72
2022/06/08 05:31:58;;;;;;;;;;;15.20;99.90;;;;;;5108824;28;20276;-72
2022/06/08 05:34:24;;;;;;;;;;;15.20;99.90;;;;;;5108585;28;19922;-72
2022/06/08 05:36:50;;;;;;;;;;;15.20;99.90;;;;;;5110364;28;19903;-72
2022/06/08 05:39:15;;;;;;;;;;;15.20;99.90;;;;;;5112111;28;19915;-72
2022/06/08 05:41:41;;;;;;;;;;;15.30;99.90;;;;;;5111573;28;20236;-72
2022/06/08 05:44:07;;;;;;;;;;;15.30;99.90;;;;;;5111587;28;19908;-72
2022/06/08 05:46:32;;;;;;;;;;;15.30;99.90;;;;;;5110210;28;19990;-72
2022/06/08 05:48:58;;;;;;;;;;;15.30;99.90;;;;;;5108458;28;19904;-73
2022/06/08 05:51:23;;;;;;;;;;;15.20;99.90;;;;;;5108806;28;19915;-68
2022/06/08 05:53:49;;;;;;;;;;;15.20;99.90;;;;;;5111447;28;19915;-73
2022/06/08 05:56:14;;;;;;;;;;;15.30;99.90;;;;;;5110846;28;19908;-73
2022/06/08 05:58:40;;;;;;;;;;;15.30;99.90;;;;;;5110990;28;19914;-72
2022/06/08 06:01:05;;;;;;;;;;;15.30;99.90;;;;;;5111049;28;19904;-72
2022/06/08 06:03:31;;;;;;;;;;;15.40;99.90;;;;;;5111131;28;19904;-72
2022/06/08 06:05:57;;;;;;;;;;;15.40;99.90;;;;;;5110811;28;19907;-72
2022/06/08 06:08:23;;;;;;;;;;;15.40;99.90;;;;;;5111305;28;19911;-73
2022/06/08 06:10:49;;;;;;;;;;;15.50;99.90;;;;;;5111395;28;20395;-73
2022/06/08 06:13:15;;;;;;;;;;;15.50;99.90;;;;;;5111074;28;19912;-73
2022/06/08 06:15:40;;;;;;;;;;;15.60;99.90;;;;;;5110876;28;20312;-73
2022/06/08 06:18:06;;;;;;;;;;;15.60;99.90;;;;;;5107619;28;20342;-73
2022/06/08 06:20:32;;;;;;;;;;;15.70;99.90;;;;;;5107341;28;19904;-73
2022/06/08 06:22:58;;;;;;;;;;;15.80;99.90;;;;;;5110132;28;19912;-74
2022/06/08 06:25:24;;;;;;;;;;;15.80;99.90;;;;;;5108138;28;19934;-72
2022/06/08 06:27:50;;;;;;;;;;;15.90;99.90;;;;;;5107945;28;19903;-74
2022/06/08 06:30:16;;;;;;;;;;;15.90;99.90;;;;;;5110119;28;19930;-74
2022/06/08 06:32:43;;;;;;;;;;;16.10;99.90;;;;;;5107874;28;19904;-74
2022/06/08 06:35:12;;;;;;;;;;;16.10;99.90;;;;;;5107510;28;19908;-74
2022/06/08 06:37:38;;;;;;;;;;;16.20;99.90;;;;;;5110663;28;19908;-74
2022/06/08 06:40:04;;;;;;;;;;;16.30;99.90;;;;;;5110687;28;19914;-74
2022/06/08 06:42:31;;;;;;;;;;;16.30;99.90;;;;;;5110472;28;19962;-74
2022/06/08 06:44:57;;;;;;;;;;;16.50;99.90;;;;;;5110647;28;19904;-73
2022/06/08 06:47:22;;;;;;;;;;;16.60;99.90;;;;;;5110883;28;20006;-74
2022/06/08 06:49:49;;;;;;;;;;;16.60;99.90;;;;;;5110347;28;19904;-73
2022/06/08 06:52:15;;;;;;;;;;;16.70;99.90;;;;;;5110735;28;19908;-66
2022/06/08 06:54:41;;;;;;;;;;;16.70;99.90;;;;;;5110300;28;19915;-68
2022/06/08 06:57:07;;;;;;;;;;;16.80;99.90;;;;;;5110660;28;20403;-69
2022/06/08 06:59:33;;;;;;;;;;;16.80;99.90;;;;;;5110671;28;19935;-69
2022/06/08 07:01:59;;;;;;;;;;;16.90;99.90;;;;;;5109445;28;19916;-69
2022/06/08 07:04:24;;;;;;;;;;;16.90;99.90;;;;;;5107160;28;19903;-69
2022/06/08 07:06:50;;;;;;;;;;;16.80;99.90;;;;;;5106082;28;20050;-70
2022/06/08 07:09:15;;;;;;;;;;;16.80;99.90;;;;;;5110376;28;19994;-68
2022/06/08 07:11:41;;;;;;;;;;;16.80;99.90;;;;;;5110433;28;19904;-67
2022/06/08 07:14:17;;;;;;;;;;;16.80;99.90;;;;;;5117386;28;19914;-68
2022/06/08 07:16:45;;;;;;;;;;;16.80;99.90;;;;;;5131078;28;20370;-67
2022/06/08 07:19:11;;;;;;;;;;;17.20;99.90;;;;;;5131239;28;19903;-68
2022/06/08 07:21:36;;;;;;;;;;;17.30;99.90;;;;;;5130536;28;20429;-67
2022/06/08 07:24:02;;;;;;;;;;;17.30;99.90;;;;;;5130808;28;19910;-67
2022/06/08 07:26:28;;;;;;;;;;;17.30;99.90;;;;;;5130918;28;19998;-67
2022/06/08 07:28:56;;;;;;;;;;;17.40;99.90;;;;;;5131024;28;20002;-68
2022/06/08 07:31:23;;;;;;;;;;;17.30;99.90;;;;;;5131056;28;19997;-68
2022/06/08 07:33:48;;;;;;;;;;;17.30;99.90;;;;;;5130953;28;19964;-68
2022/06/08 07:36:15;;;;;;;;;;;17.20;99.90;;;;;;5113082;28;19903;-68
2022/06/08 07:38:40;;;;;;;;;;;17.10;99.90;;;;;;5113207;28;19908;-68
2022/06/08 07:41:06;;;;;;;;;;;17.10;99.90;;;;;;5113988;28;19908;-68
2022/06/08 07:43:31;;;;;;;;;;;17.30;99.90;;;;;;5114061;28;19903;-68
2022/06/08 07:45:57;;;;;;;;;;;17.80;99.90;;;;;;5114246;28;19908;-68
2022/06/08 07:51:08;;;;;;;;;;;18.40;99.90;;;;;;5113206;28;19998;-67
2022/06/08 07:53:34;;;;;;;;;;;19.00;99.90;;;;;;5114279;28;19903;-68
2022/06/08 07:56:00;;;;;;;;;;;19.70;99.90;;;;;;5114185;28;19904;-68
2022/06/08 07:58:26;;;;;;;;;;;20.20;99.90;;;;;;5114546;28;20528;-67
2022/06/08 08:00:52;;;;;;;;;;;21.10;99.90;;;;;;5114009;28;19942;-68
2022/06/08 08:03:18;;;;;;;;;;;21.60;99.90;;;;;;5114583;28;19916;-68
2022/06/08 08:05:44;;;;;;;;;;;21.80;99.90;;;;;;5113678;28;19904;-68
2022/06/08 08:08:10;;;;;;;;;;;21.70;99.90;;;;;;5113972;28;19954;-68
2022/06/08 08:10:36;;;;;;;;;;;21.20;99.90;;;;;;5113741;28;19943;-68
2022/06/08 08:13:02;;;;;;;;;;;20.20;99.90;;;;;;5113965;28;19911;-67
2022/06/08 08:15:28;;;;;;;;;;;19.60;99.90;;;;;;5111539;27;19943;-68
2022/06/08 08:17:54;;;;;;;;;;;19.20;99.90;;;;;;5110574;28;20328;-68
2022/06/08 08:20:20;;;;;;;;;;;18.90;99.90;;;;;;5112125;28;20382;-67
2022/06/08 08:22:46;;;;;;;;;;;18.80;99.90;;;;;;5112965;28;20368;-68
2022/06/08 08:25:12;;;;;;;;;;;19.40;99.90;;;;;;5109046;28;20276;-67
2022/06/08 08:27:38;;;;;;;;;;;20.70;99.90;;;;;;5110635;28;19986;-67
2022/06/08 08:30:05;;;;;;;;;;;21.00;99.90;;;;;;5113396;28;20392;-67
2022/06/08 08:32:30;;;;;;;;;;;20.80;99.90;;;;;;5113107;28;19903;-68
2022/06/08 08:34:56;;;;;;;;;;;20.40;99.90;;;;;;5109828;28;19997;-68
2022/06/08 08:37:21;;;;;;;;;;;19.90;99.90;;;;;;5109973;28;19908;-67
2022/06/08 08:39:47;;;;;;;;;;;19.50;99.90;;;;;;5112788;28;20084;-70
2022/06/08 08:42:21;;;;;;;;;;;19.10;99.90;;;;;;5113155;28;19916;-70
2022/06/08 08:44:49;;;;;;;;;;;18.80;99.90;;;;;;5113257;28;19904;-69
2022/06/08 08:47:14;;;;;;;;;;;18.60;99.90;;;;;;5112842;28;19907;-70
2022/06/08 08:49:45;;;;;;;;;;;18.30;99.90;;;;;;5106086;28;20817;-68
2022/06/08 08:52:24;;;;;;;;;;;18.90;99.90;;;;;;5108977;28;19960;-70
2022/06/08 08:54:57;;;;;;;;;;;19.90;99.90;;;;;;5098791;28;19903;-66
2022/06/08 08:57:30;;;;;;;;;;;21.30;99.90;;;;;;5109522;28;20258;-71
2022/06/08 08:59:56;;;;;;;;;;;21.70;99.90;;;;;;5107905;28;19950;-70
2022/06/08 09:05:13;;;;;;;;;;;20.30;99.90;;;;;;5109758;28;19975;-71
2022/06/08 09:07:38;;;;;;;;;;;20.10;99.90;;;;;;5110041;28;19907;-70
2022/06/08 09:10:04;;;;;;;;;;;20.30;99.90;;;;;;5109509;28;19904;-69
2022/06/08 09:12:29;;;;;;;;;;;21.20;99.90;;;;;;5109280;28;20308;-69
2022/06/08 09:15:00;;;;;;;;;;;21.70;99.90;;;;;;5109339;28;19914;-69
2022/06/08 09:17:34;;;;;;;;;;;22.40;99.90;;;;;;5107205;28;19950;-66
2022/06/08 09:20:01;;;;;;;;;;;23.10;99.90;;;;;;5088724;28;19908;-66
2022/06/08 09:22:29;;;;;;;;;;;22.80;99.90;;;;;;5089008;28;20288;-65
2022/06/08 09:24:59;;;;;;;;;;;22.40;99.90;;;;;;5104707;28;20249;-66
2022/06/08 09:27:33;;;;;;;;;;;21.90;99.90;;;;;;5089112;28;19911;-65
2022/06/08 09:30:11;;;;;;;;;;;21.80;99.90;;;;;;5106022;28;19908;-66
2022/06/08 09:32:41;;;;;;;;;;;23.20;99.90;;;;;;5108886;28;19922;-67
2022/06/08 09:35:19;;;;;;;;;;;24.50;99.90;;;;;;5108994;28;19911;-67
2022/06/08 09:37:46;;;;;;;;;;;25.50;99.90;;;;;;5108892;28;20434;-67
2022/06/08 09:40:36;;;;;;;;;;;25.50;99.90;;;;;;5109146;28;19904;-67
2022/06/08 09:43:14;;;;;;;;;;;24.20;99.90;;;;;;5108683;28;20416;-67
2022/06/08 09:45:50;;;;;;;;;;;23.00;99.90;;;;;;5109078;28;19911;-64
2022/06/08 09:51:27;;;;;;;;;;;22.00;99.90;;;;;;5107838;28;20271;-66
2022/06/08 09:54:11;;;;;;;;;;;20.90;99.90;;;;;;5108678;28;19910;-65
2022/06/08 09:56:42;;;;;;;;;;;20.40;99.90;;;;;;5106663;28;19907;-66
2022/06/08 09:59:25;;;;;;;;;;;20.50;99.90;;;;;;5106080;27;19914;-65
2022/06/08 10:01:57;;;;;;;;;;;20.80;99.90;;;;;;5106928;28;19923;-69
2022/06/08 10:04:42;;;;;;;;;;;21.80;99.90;;;;;;5107308;28;20527;-70
2022/06/08 10:07:18;;;;;;;;;;;22.00;99.90;;;;;;5109067;28;19964;-67
2022/06/08 10:09:43;;;;;;;;;;;22.00;99.90;;;;;;5111570;28;19998;-68
2022/06/08 10:12:12;;;;;;;;;;;21.40;99.90;;;;;;5111538;28;19994;-69
2022/06/08 10:14:45;;;;;;;;;;;21.20;99.90;;;;;;5111665;28;19954;-68
2022/06/08 10:17:10;;;;;;;;;;;21.30;99.90;;;;;;5111531;28;19953;-68
2022/06/08 10:19:56;;;;;;;;;;;21.40;99.90;;;;;;5111369;28;19914;-61
2022/06/08 10:22:23;;;;;;;;;;;20.70;99.90;;;;;;5078855;28;19916;-67
2022/06/08 10:24:58;;;;;;;;;;;20.80;99.90;;;;;;5108131;28;19908;-67
2022/06/08 10:27:26;;;;;;;;;;;22.50;99.90;;;;;;5108019;28;19912;-67
2022/06/08 10:30:13;;;;;;;;;;;22.60;99.90;;;;;;5109360;28;19912;-67
2022/06/08 10:32:42;;;;;;;;;;;22.30;99.90;;;;;;5111039;28;19911;-67
2022/06/08 10:35:21;;;;;;;;;;;23.90;99.90;;;;;;5111111;28;19919;-65
2022/06/08 10:37:47;;;;;;;;;;;24.30;99.90;;;;;;5111379;28;19910;-67
2022/06/08 10:40:17;;;;;;;;;;;27.30;99.70;;;;;;5108425;28;19912;-66
2022/06/08 10:42:44;;;;;;;;;;;28.90;95.90;;;;;;5107369;28;19927;-67
2022/06/08 10:45:22;;;;;;;;;;;27.90;93.20;;;;;;5110359;28;19914;-66
2022/06/08 10:47:53;;;;;;;;;;;26.70;94.50;;;;;;5111087;28;19911;-66
2022/06/08 10:50:28;;;;;;;;;;;25.80;95.60;;;;;;5110546;28;19908;-67
2022/06/08 10:54:52;;;;;;;;;;;24.80;96.00;;;;;;5110861;28;20371;-66
2022/06/08 10:55:40;;;;;;;;;;;23.60;99.30;;;;;;5111029;28;19910;-66
2022/06/08 10:58:11;;;;;;;;;;;23.80;99.70;;;;;;5110927;28;19947;-66
2022/06/08 11:00:42;;;;;;;;;;;23.80;99.90;;;;;;5110834;28;20400;-66
2022/06/08 11:03:26;;;;;;;;;;;25.30;99.90;;;;;;5110553;28;20423;-66
2022/06/08 11:05:52;;;;;;;;;;;24.50;98.70;;;;;;5110260;28;20379;-65
2022/06/08 11:08:22;;;;;;;;;;;24.40;98.30;;;;;;5110441;28;19904;-66
2022/06/08 11:10:49;;;;;;;;;;;24.00;99.20;;;;;;5110682;28;19910;-67
2022/06/08 11:13:18;;;;;;;;;;;23.40;99.40;;;;;;5111082;28;19915;-66
2022/06/08 11:15:49;;;;;;;;;;;22.90;99.90;;;;;;5111572;28;19915;-66
2022/06/08 11:18:17;;;;;;;;;;;22.50;99.90;;;;;;5111562;28;19918;-66
2022/06/08 11:20:47;;;;;;;;;;;22.10;99.90;;;;;;5111429;28;19907;-66
2022/06/08 11:23:12;;;;;;;;;;;21.90;99.90;;;;;;5111296;28;19915;-66
2022/06/08 11:25:47;;;;;;;;;;;23.50;99.90;;;;;;5110819;28;19904;-66
2022/06/08 11:28:32;;;;;;;;;;;26.80;99.30;;;;;;5111520;28;19965;-66
2022/06/08 11:31:00;;;;;;;;;;;29.70;94.40;;;;;;5111224;28;19990;-66
2022/06/08 11:33:45;;;;;;;;;;;30.80;86.00;;;;;;5110880;28;20165;-66
2022/06/08 11:36:17;;;;;;;;;;;29.80;81.70;;;;;;5110483;28;19907;-66
2022/06/08 11:39:01;;;;;;;;;;;27.60;86.10;;;;;;5111235;28;19919;-66
2022/06/08 11:41:35;;;;;;;;;;;27.50;89.00;;;;;;5110723;27;19916;-66
2022/06/08 11:44:12;;;;;;;;;;;29.60;88.10;;;;;;5110767;28;19964;-66
2022/06/08 11:46:40;;;;;;;;;;;30.30;84.80;;;;;;5110726;28;19908;-66
2022/06/08 11:49:25;;;;;;;;;;;31.10;79.70;;;;;;5110832;28;19969;-66
2022/06/08 11:51:51;;;;;;;;;;;30.80;74.30;;;;;;5110665;28;19910;-66
2022/06/08 11:54:25;;;;;;;;;;;32.10;74.80;;;;;;5110971;28;19904;-66
2022/06/08 11:57:09;;;;;;;;;;;31.70;71.90;;;;;;5110907;28;19942;-66
2022/06/08 11:59:36;;;;;;;;;;;32.50;68.60;;;;;;5110420;28;20344;-66
2022/06/08 12:02:12;;;;;;;;;;;33.30;66.50;;;;;;5110695;28;19955;-66
2022/06/08 12:04:43;;;;;;;;;;;29.50;66.40;;;;;;5110530;28;19911;-66
2022/06/08 12:07:27;;;;;;;;;;;27.50;74.20;;;;;;5109825;28;19965;-66
2022/06/08 12:09:52;;;;;;;;;;;25.70;86.40;;;;;;5093737;28;20241;-67
2022/06/08 12:12:20;;;;;;;;;;;24.20;94.00;;;;;;5093399;28;20379;-66
2022/06/08 12:14:45;;;;;;;;;;;23.90;96.20;;;;;;5093433;28;20426;-66
2022/06/08 12:17:17;;;;;;;;;;;23.10;97.60;;;;;;5093670;28;19904;-67
2022/06/08 12:19:44;;;;;;;;;;;22.70;98.60;;;;;;5093224;28;20334;-67
2022/06/08 12:22:18;;;;;;;;;;;21.80;99.90;;;;;;5092771;28;19916;-66
2022/06/08 12:24:45;;;;;;;;;;;21.80;99.90;;;;;;5070494;28;19904;-67
2022/06/08 12:27:10;;;;;;;;;;;21.90;99.90;;;;;;5089991;28;19976;-66
2022/06/08 12:29:39;;;;;;;;;;;21.90;99.90;;;;;;5092363;28;20297;-66
2022/06/08 12:32:07;;;;;;;;;;;21.50;99.90;;;;;;5093150;28;19998;-67
2022/06/08 12:34:33;;;;;;;;;;;20.60;99.90;;;;;;5096103;28;19908;-66
2022/06/08 12:37:19;;;;;;;;;;;20.50;99.90;;;;;;5112826;27;19961;-68
2022/06/08 12:39:45;;;;;;;;;;;20.30;99.90;;;;;;5113074;28;19904;-67
2022/06/08 12:42:30;;;;;;;;;;;20.50;99.90;;;;;;5112940;28;19920;-67
2022/06/08 12:44:57;;;;;;;;;;;20.80;99.90;;;;;;5113387;28;19907;-67
2022/06/08 12:47:26;;;;;;;;;;;23.00;99.90;;;;;;5113299;28;20375;-67
2022/06/08 12:49:56;;;;;;;;;;;25.10;99.90;;;;;;5113073;28;19907;-66
2022/06/08 12:52:27;;;;;;;;;;;26.40;99.90;;;;;;5112729;28;19955;-66
2022/06/08 12:54:52;;;;;;;;;;;27.30;98.30;;;;;;5113637;28;19903;-65
2022/06/08 12:57:22;;;;;;;;;;;25.90;98.10;;;;;;5113759;28;19926;-66
2022/06/08 12:59:49;;;;;;;;;;;27.30;97.80;;;;;;5111958;28;19903;-65
2022/06/08 13:02:20;;;;;;;;;;;28.30;96.80;;;;;;5112657;28;20372;-65
2022/06/08 13:04:46;;;;;;;;;;;28.50;96.00;;;;;;5112747;28;20061;-66
2022/06/08 13:07:15;;;;;;;;;;;28.70;95.00;;;;;;5112007;28;19907;-66
2022/06/08 13:09:41;;;;;;;;;;;28.90;92.80;;;;;;5109123;27;19914;-66
2022/06/08 13:12:09;;;;;;;;;;;28.90;92.10;;;;;;5109137;28;19907;-66
2022/06/08 13:14:36;;;;;;;;;;;28.50;88.10;;;;;;5108922;28;19907;-65
2022/06/08 13:17:02;;;;;;;;;;;28.90;91.20;;;;;;5109215;28;19914;-66
2022/06/08 13:19:29;;;;;;;;;;;29.60;90.60;;;;;;5109189;28;19907;-66
2022/06/08 13:21:54;;;;;;;;;;;29.60;86.00;;;;;;5108310;28;20281;-66
2022/06/08 13:24:20;;;;;;;;;;;29.50;84.20;;;;;;5109128;28;20395;-66
2022/06/08 13:26:46;;;;;;;;;;;28.80;82.60;;;;;;5109236;28;19946;-66
2022/06/08 13:29:12;;;;;;;;;;;28.50;87.20;;;;;;5108726;28;19910;-66
2022/06/08 13:31:38;;;;;;;;;;;29.40;84.20;;;;;;5108608;28;19904;-66
2022/06/08 13:34:04;;;;;;;;;;;28.50;83.00;;;;;;5108853;28;20360;-66
2022/06/08 13:36:32;;;;;;;;;;;28.40;79.90;;;;;;5108170;28;20320;-67
2022/06/08 13:39:16;;;;;;;;;;;26.70;82.20;;;;;;5108839;28;19907;-64
2022/06/08 13:41:44;;;;;;;;;;;26.00;91.20;;;;;;5108199;28;20364;-67
2022/06/08 13:44:24;;;;;;;;;;;24.80;93.10;;;;;;5108696;28;19904;-69
2022/06/08 13:46:52;;;;;;;;;;;23.40;99.30;;;;;;5108742;28;19907;-68
2022/06/08 13:49:17;;;;;;;;;;;22.20;99.90;;;;;;5108222;28;19903;-76
2022/06/08 13:51:43;;;;;;;;;;;21.20;99.90;;;;;;5108484;28;19912;-75
2022/06/08 13:54:21;;;;;;;;;;;20.30;99.90;;;;;;5108769;28;19908;-71
2022/06/08 13:56:47;;;;;;;;;;;19.50;99.90;;;;;;5108295;28;19996;-75
2022/06/08 13:59:13;;;;;;;;;;;19.50;99.90;;;;;;5108434;28;20392;-77
2022/06/08 14:01:40;;;;;;;;;;;19.70;99.90;;;;;;5108608;28;19935;-77
2022/06/08 14:04:10;;;;;;;;;;;20.10;99.90;;;;;;5108588;28;20007;-76
2022/06/08 14:14:50;;;;;;;;;;;21.80;99.90;;;;;;5108571;28;19911;-75
2022/06/08 14:17:17;;;;;;;;;;;21.80;99.90;;;;;;5108002;28;19912;-78
2022/06/08 14:19:52;;;;;;;;;;;22.30;99.90;;;;;;5108568;28;19907;-77
2022/06/08 14:22:21;;;;;;;;;;;22.00;99.90;;;;;;5107748;28;19912;-77
2022/06/08 14:24:48;;;;;;;;;;;22.60;99.90;;;;;;5107982;28;19998;-74
2022/06/08 14:27:15;;;;;;;;;;;22.60;99.90;;;;;;5107814;28;20360;-74
2022/06/08 14:29:41;;;;;;;;;;;22.70;99.90;;;;;;5108039;28;20356;-74
2022/06/08 14:32:12;;;;;;;;;;;22.60;99.90;;;;;;5108321;28;19911;-74
2022/06/08 14:34:38;;;;;;;;;;;22.00;99.90;;;;;;5107800;28;19907;-73
2022/06/08 14:37:05;;;;;;;;;;;22.60;99.90;;;;;;5107113;28;20249;-77
2022/06/08 14:39:35;;;;;;;;;;;23.40;99.90;;;;;;5107744;28;19904;-74
2022/06/08 14:42:01;;;;;;;;;;;23.30;99.90;;;;;;5107303;28;20287;-74
2022/06/08 14:44:29;;;;;;;;;;;22.50;99.90;;;;;;5107906;28;20359;-73
2022/06/08 14:46:56;;;;;;;;;;;22.30;99.90;;;;;;5107232;28;20087;-75
2022/06/08 14:49:23;;;;;;;;;;;22.00;99.90;;;;;;5108113;28;19917;-78
2022/06/08 14:51:49;;;;;;;;;;;21.70;99.90;;;;;;5107676;28;20363;-78